sensor_id;sensor_type;location;lat;lon;timestamp;temperature;humidity
53282;DHT22;39167;52.794;6.892;2023-05-08T00:00:31;13.80;99.90
53282;DHT22;39167;52.794;6.892;2023-05-08T00:02:56;13.80;99.90
53282;DHT22;39167;52.794;6.892;2023-05-08T00:05:22;13.70;99.90
53282;DHT22;39167;52.794;6.892;2023-05-08T00:07:48;13.70;99.90
53282;DHT22;39167;52.794;6.892;2023-05-08T00:10:18;13.70;99.90
53282;DHT22;39167;52.794;6.892;2023-05-08T00:12:44;13.80;99.90
53282;DHT22;39167;52.794;6.892;2023-05-08T00:15:10;13.70;99.90
53282;DHT22;39167;52.794;6.892;2023-05-08T00:17:35;13.60;99.90
53282;DHT22;39167;52.794;6.892;2023-05-08T00:20:01;13.60;99.90
53282;DHT22;39167;52.794;6.892;2023-05-08T00:22:31;13.60;99.90
53282;DHT22;39167;52.794;6.892;2023-05-08T00:24:57;13.60;99.90
53282;DHT22;39167;52.794;6.892;2023-05-08T00:27:22;13.60;99.90
53282;DHT22;39167;52.794;6.892;2023-05-08T00:29:48;13.60;99.90
53282;DHT22;39167;52.794;6.892;2023-05-08T00:32:14;13.60;99.90
53282;DHT22;39167;52.794;6.892;2023-05-08T00:34:40;13.60;99.90
53282;DHT22;39167;52.794;6.892;2023-05-08T00:37:06;13.60;99.90
53282;DHT22;39167;52.794;6.892;2023-05-08T00:39:32;12.90;99.90
53282;DHT22;39167;52.794;6.892;2023-05-08T00:41:57;13.50;99.90
53282;DHT22;39167;52.794;6.892;2023-05-08T00:44:23;13.30;99.90
53282;DHT22;39167;52.794;6.892;2023-05-08T00:46:52;12.90;99.90
53282;DHT22;39167;52.794;6.892;2023-05-08T00:49:18;13.50;99.90
53282;DHT22;39167;52.794;6.892;2023-05-08T00:51:46;13.50;99.90
53282;DHT22;39167;52.794;6.892;2023-05-08T00:54:12;13.50;99.90
53282;DHT22;39167;52.794;6.892;2023-05-08T00:56:39;13.50;99.90
53282;DHT22;39167;52.794;6.892;2023-05-08T00:59:09;13.50;99.90
53282;DHT22;39167;52.794;6.892;2023-05-08T01:01:36;13.40;99.90
53282;DHT22;39167;52.794;6.892;2023-05-08T01:04:03;13.30;99.90
53282;DHT22;39167;52.794;6.892;2023-05-08T01:06:29;13.30;99.90
53282;DHT22;39167;52.794;6.892;2023-05-08T01:08:55;13.30;99.90
53282;DHT22;39167;52.794;6.892;2023-05-08T01:11:35;13.30;99.90
53282;DHT22;39167;52.794;6.892;2023-05-08T01:16:44;13.30;99.90
53282;DHT22;39167;52.794;6.892;2023-05-08T01:22:30;13.30;99.90
53282;DHT22;39167;52.794;6.892;2023-05-08T01:25:30;13.30;99.90
53282;DHT22;39167;52.794;6.892;2023-05-08T01:31:11;13.20;99.90
53282;DHT22;39167;52.794;6.892;2023-05-08T01:33:46;13.10;99.90
53282;DHT22;39167;52.794;6.892;2023-05-08T01:36:28;13.10;99.90
53282;DHT22;39167;52.794;6.892;2023-05-08T01:39:04;13.10;99.90
53282;DHT22;39167;52.794;6.892;2023-05-08T01:41:33;13.10;99.90
53282;DHT22;39167;52.794;6.892;2023-05-08T01:44:18;13.10;99.90
53282;DHT22;39167;52.794;6.892;2023-05-08T01:46:48;13.00;99.90
53282;DHT22;39167;52.794;6.892;2023-05-08T01:49:25;13.00;99.90
53282;DHT22;39167;52.794;6.892;2023-05-08T01:55:19;13.00;99.90
53282;DHT22;39167;52.794;6.892;2023-05-08T01:57:39;12.90;99.90
53282;DHT22;39167;52.794;6.892;2023-05-08T02:00:06;12.90;99.90
53282;DHT22;39167;52.794;6.892;2023-05-08T02:02:33;12.90;99.90
53282;DHT22;39167;52.794;6.892;2023-05-08T02:05:03;12.80;99.90
53282;DHT22;39167;52.794;6.892;2023-05-08T02:07:31;12.90;99.90
53282;DHT22;39167;52.794;6.892;2023-05-08T02:10:01;12.80;99.90
53282;DHT22;39167;52.794;6.892;2023-05-08T02:12:30;12.80;99.90
53282;DHT22;39167;52.794;6.892;2023-05-08T02:14:58;12.70;99.90
53282;DHT22;39167;52.794;6.892;2023-05-08T02:17:26;12.70;99.90
53282;DHT22;39167;52.794;6.892;2023-05-08T02:19:54;12.70;99.90
53282;DHT22;39167;52.794;6.892;2023-05-08T02:22:22;12.70;99.90
53282;DHT22;39167;52.794;6.892;2023-05-08T02:24:49;12.70;99.90
53282;DHT22;39167;52.794;6.892;2023-05-08T02:27:19;12.70;99.90
53282;DHT22;39167;52.794;6.892;2023-05-08T02:29:46;12.70;99.90
53282;DHT22;39167;52.794;6.892;2023-05-08T02:32:13;12.60;99.90
53282;DHT22;39167;52.794;6.892;2023-05-08T02:34:40;12.60;99.90
53282;DHT22;39167;52.794;6.892;2023-05-08T02:37:07;12.60;99.90
53282;DHT22;39167;52.794;6.892;2023-05-08T02:39:35;12.50;99.90
53282;DHT22;39167;52.794;6.892;2023-05-08T02:42:02;12.50;99.90
53282;DHT22;39167;52.794;6.892;2023-05-08T02:44:28;12.50;99.90
53282;DHT22;39167;52.794;6.892;2023-05-08T02:46:59;12.50;99.90
53282;DHT22;39167;52.794;6.892;2023-05-08T02:49:32;12.50;99.90
53282;DHT22;39167;52.794;6.892;2023-05-08T02:52:07;12.50;99.90
53282;DHT22;39167;52.794;6.892;2023-05-08T02:54:40;12.50;99.90
53282;DHT22;39167;52.794;6.892;2023-05-08T03:00:15;12.40;99.90
53282;DHT22;39167;52.794;6.892;2023-05-08T03:02:51;12.40;99.90
53282;DHT22;39167;52.794;6.892;2023-05-08T03:05:24;12.40;99.90
53282;DHT22;39167;52.794;6.892;2023-05-08T03:07:53;12.40;99.90
53282;DHT22;39167;52.794;6.892;2023-05-08T03:10:22;12.30;99.90
53282;DHT22;39167;52.794;6.892;2023-05-08T03:12:51;12.40;99.90
53282;DHT22;39167;52.794;6.892;2023-05-08T03:15:25;12.30;99.90
53282;DHT22;39167;52.794;6.892;2023-05-08T03:17:54;12.30;99.90
53282;DHT22;39167;52.794;6.892;2023-05-08T03:20:22;12.30;99.90
53282;DHT22;39167;52.794;6.892;2023-05-08T03:22:49;12.30;99.90
53282;DHT22;39167;52.794;6.892;2023-05-08T03:25:18;12.20;99.90
53282;DHT22;39167;52.794;6.892;2023-05-08T03:27:47;12.20;99.90
53282;DHT22;39167;52.794;6.892;2023-05-08T03:30:14;12.20;99.90
53282;DHT22;39167;52.794;6.892;2023-05-08T03:32:44;12.20;99.90
53282;DHT22;39167;52.794;6.892;2023-05-08T03:35:14;12.20;99.90
53282;DHT22;39167;52.794;6.892;2023-05-08T03:37:45;12.10;99.90
53282;DHT22;39167;52.794;6.892;2023-05-08T03:40:12;12.10;99.90
53282;DHT22;39167;52.794;6.892;2023-05-08T03:42:39;11.80;99.90
53282;DHT22;39167;52.794;6.892;2023-05-08T03:45:08;12.10;99.90
53282;DHT22;39167;52.794;6.892;2023-05-08T03:47:38;12.10;99.90
53282;DHT22;39167;52.794;6.892;2023-05-08T03:50:05;12.00;99.90
53282;DHT22;39167;52.794;6.892;2023-05-08T03:52:33;12.00;99.90
53282;DHT22;39167;52.794;6.892;2023-05-08T03:55:02;11.30;99.90
53282;DHT22;39167;52.794;6.892;2023-05-08T03:57:39;12.00;99.90
53282;DHT22;39167;52.794;6.892;2023-05-08T04:00:20;12.00;99.90
53282;DHT22;39167;52.794;6.892;2023-05-08T04:02:55;12.50;99.90
53282;DHT22;39167;52.794;6.892;2023-05-08T04:05:35;11.70;99.90
53282;DHT22;39167;52.794;6.892;2023-05-08T04:08:12;11.90;99.90
53282;DHT22;39167;52.794;6.892;2023-05-08T04:10:50;11.90;99.90
53282;DHT22;39167;52.794;6.892;2023-05-08T04:13:26;11.90;99.90
53282;DHT22;39167;52.794;6.892;2023-05-08T04:16:05;11.90;99.90
53282;DHT22;39167;52.794;6.892;2023-05-08T04:18:36;11.80;99.90
53282;DHT22;39167;52.794;6.892;2023-05-08T04:21:08;11.90;99.90
53282;DHT22;39167;52.794;6.892;2023-05-08T04:23:35;11.90;99.90
53282;DHT22;39167;52.794;6.892;2023-05-08T04:26:04;11.80;99.90
53282;DHT22;39167;52.794;6.892;2023-05-08T04:28:32;11.80;99.90
53282;DHT22;39167;52.794;6.892;2023-05-08T04:30:59;11.70;99.90
53282;DHT22;39167;52.794;6.892;2023-05-08T04:33:28;11.80;99.90
53282;DHT22;39167;52.794;6.892;2023-05-08T04:36:03;11.80;99.90
53282;DHT22;39167;52.794;6.892;2023-05-08T04:38:29;11.30;99.90
53282;DHT22;39167;52.794;6.892;2023-05-08T04:40:55;11.80;99.90
53282;DHT22;39167;52.794;6.892;2023-05-08T04:43:27;11.40;99.90
53282;DHT22;39167;52.794;6.892;2023-05-08T04:45:55;11.10;99.90
53282;DHT22;39167;52.794;6.892;2023-05-08T04:48:21;11.70;99.90
53282;DHT22;39167;52.794;6.892;2023-05-08T04:50:47;11.70;99.90
53282;DHT22;39167;52.794;6.892;2023-05-08T04:53:13;11.70;99.90
53282;DHT22;39167;52.794;6.892;2023-05-08T04:55:39;11.70;99.90
53282;DHT22;39167;52.794;6.892;2023-05-08T04:58:05;11.70;99.90
53282;DHT22;39167;52.794;6.892;2023-05-08T05:00:30;11.70;99.90
53282;DHT22;39167;52.794;6.892;2023-05-08T05:02:56;11.70;99.90
53282;DHT22;39167;52.794;6.892;2023-05-08T05:05:25;11.60;99.90
53282;DHT22;39167;52.794;6.892;2023-05-08T05:07:50;11.60;99.90
53282;DHT22;39167;52.794;6.892;2023-05-08T05:10:19;11.60;99.90
53282;DHT22;39167;52.794;6.892;2023-05-08T05:12:52;11.60;99.90
53282;DHT22;39167;52.794;6.892;2023-05-08T05:15:22;11.50;99.90
53282;DHT22;39167;52.794;6.892;2023-05-08T05:18:00;11.60;99.90
53282;DHT22;39167;52.794;6.892;2023-05-08T05:20:26;11.50;99.90
53282;DHT22;39167;52.794;6.892;2023-05-08T05:22:54;11.60;99.90
53282;DHT22;39167;52.794;6.892;2023-05-08T05:25:20;11.50;99.90
53282;DHT22;39167;52.794;6.892;2023-05-08T05:27:46;11.50;99.90
53282;DHT22;39167;52.794;6.892;2023-05-08T05:30:12;11.50;99.90
53282;DHT22;39167;52.794;6.892;2023-05-08T05:32:38;11.50;99.90
53282;DHT22;39167;52.794;6.892;2023-05-08T05:35:04;11.50;99.90
53282;DHT22;39167;52.794;6.892;2023-05-08T05:37:32;11.50;99.90
53282;DHT22;39167;52.794;6.892;2023-05-08T05:39:58;11.60;99.90
53282;DHT22;39167;52.794;6.892;2023-05-08T05:42:29;11.50;99.90
53282;DHT22;39167;52.794;6.892;2023-05-08T05:44:55;11.50;99.90
53282;DHT22;39167;52.794;6.892;2023-05-08T05:47:24;11.60;99.90
53282;DHT22;39167;52.794;6.892;2023-05-08T05:49:49;11.60;99.90
53282;DHT22;39167;52.794;6.892;2023-05-08T05:52:16;11.60;99.90
53282;DHT22;39167;52.794;6.892;2023-05-08T05:54:42;11.30;99.90
53282;DHT22;39167;52.794;6.892;2023-05-08T05:57:14;11.60;99.90
53282;DHT22;39167;52.794;6.892;2023-05-08T05:59:39;11.60;99.90
53282;DHT22;39167;52.794;6.892;2023-05-08T06:02:06;11.70;99.90
53282;DHT22;39167;52.794;6.892;2023-05-08T06:04:38;11.60;99.90
53282;DHT22;39167;52.794;6.892;2023-05-08T06:07:13;11.60;99.90
53282;DHT22;39167;52.794;6.892;2023-05-08T06:09:39;11.70;99.90
53282;DHT22;39167;52.794;6.892;2023-05-08T06:12:05;11.70;99.90
53282;DHT22;39167;52.794;6.892;2023-05-08T06:14:32;11.70;99.90
53282;DHT22;39167;52.794;6.892;2023-05-08T06:16:58;11.70;99.90
53282;DHT22;39167;52.794;6.892;2023-05-08T06:19:24;11.70;99.90
53282;DHT22;39167;52.794;6.892;2023-05-08T07:02:16;12.20;99.90
53282;DHT22;39167;52.794;6.892;2023-05-08T07:04:45;12.20;99.90
53282;DHT22;39167;52.794;6.892;2023-05-08T07:07:17;12.20;99.90
53282;DHT22;39167;52.794;6.892;2023-05-08T07:09:52;12.30;99.90
53282;DHT22;39167;52.794;6.892;2023-05-08T07:12:35;11.90;99.90
53282;DHT22;39167;52.794;6.892;2023-05-08T07:15:11;12.50;99.90
53282;DHT22;39167;52.794;6.892;2023-05-08T07:17:47;12.50;99.90
53282;DHT22;39167;52.794;6.892;2023-05-08T08:49:42;15.10;99.90
53282;DHT22;39167;52.794;6.892;2023-05-08T08:55:08;15.40;99.90
53282;DHT22;39167;52.794;6.892;2023-05-08T08:57:40;15.40;99.90
53282;DHT22;39167;52.794;6.892;2023-05-08T09:00:08;15.70;99.90
53282;DHT22;39167;52.794;6.892;2023-05-08T09:02:43;15.80;99.90
53282;DHT22;39167;52.794;6.892;2023-05-08T09:05:12;15.90;99.90
53282;DHT22;39167;52.794;6.892;2023-05-08T09:07:37;16.00;99.90
53282;DHT22;39167;52.794;6.892;2023-05-08T09:10:05;16.20;99.90
53282;DHT22;39167;52.794;6.892;2023-05-08T09:12:32;16.30;99.90
53282;DHT22;39167;52.794;6.892;2023-05-08T09:14:58;16.80;99.90
53282;DHT22;39167;52.794;6.892;2023-05-08T09:17:23;16.50;99.90
53282;DHT22;39167;52.794;6.892;2023-05-08T09:19:50;17.00;99.90
53282;DHT22;39167;52.794;6.892;2023-05-08T09:22:17;16.50;99.90
53282;DHT22;39167;52.794;6.892;2023-05-08T09:25:01;16.70;99.90
53282;DHT22;39167;52.794;6.892;2023-05-08T09:27:29;16.80;99.90
53282;DHT22;39167;52.794;6.892;2023-05-08T09:30:02;17.30;99.90
53282;DHT22;39167;52.794;6.892;2023-05-08T09:32:32;16.90;99.90
53282;DHT22;39167;52.794;6.892;2023-05-08T09:34:59;17.00;99.90
53282;DHT22;39167;52.794;6.892;2023-05-08T09:37:29;17.00;99.90
53282;DHT22;39167;52.794;6.892;2023-05-08T09:40:15;17.10;99.90
53282;DHT22;39167;52.794;6.892;2023-05-08T09:42:55;16.80;99.90
53282;DHT22;39167;52.794;6.892;2023-05-08T09:45:47;17.30;99.90
53282;DHT22;39167;52.794;6.892;2023-05-08T09:48:13;17.40;99.90
53282;DHT22;39167;52.794;6.892;2023-05-08T09:50:41;17.40;99.90
53282;DHT22;39167;52.794;6.892;2023-05-08T09:53:07;17.50;99.90
53282;DHT22;39167;52.794;6.892;2023-05-08T09:55:48;17.60;99.90
53282;DHT22;39167;52.794;6.892;2023-05-08T09:58:13;17.70;99.90
53282;DHT22;39167;52.794;6.892;2023-05-08T10:00:39;17.90;99.90
53282;DHT22;39167;52.794;6.892;2023-05-08T10:03:05;18.00;99.90
53282;DHT22;39167;52.794;6.892;2023-05-08T10:05:32;18.10;99.90
53282;DHT22;39167;52.794;6.892;2023-05-08T10:10:45;18.40;99.90
53282;DHT22;39167;52.794;6.892;2023-05-08T10:13:14;18.50;99.90
53282;DHT22;39167;52.794;6.892;2023-05-08T12:07:43;21.10;99.90
53282;DHT22;39167;52.794;6.892;2023-05-08T12:10:11;21.20;99.90
53282;DHT22;39167;52.794;6.892;2023-05-08T12:12:41;21.20;99.90
53282;DHT22;39167;52.794;6.892;2023-05-08T12:15:12;21.30;99.90
53282;DHT22;39167;52.794;6.892;2023-05-08T12:17:38;21.40;99.90
53282;DHT22;39167;52.794;6.892;2023-05-08T12:22:38;21.50;99.90
53282;DHT22;39167;52.794;6.892;2023-05-08T12:25:05;21.50;99.90
53282;DHT22;39167;52.794;6.892;2023-05-08T12:27:32;21.60;99.90
53282;DHT22;39167;52.794;6.892;2023-05-08T12:29:57;21.80;99.90
53282;DHT22;39167;52.794;6.892;2023-05-08T12:32:23;21.90;99.90
53282;DHT22;39167;52.794;6.892;2023-05-08T12:34:52;22.00;99.90
53282;DHT22;39167;52.794;6.892;2023-05-08T12:37:27;22.10;99.90
53282;DHT22;39167;52.794;6.892;2023-05-08T12:39:55;22.20;99.90
53282;DHT22;39167;52.794;6.892;2023-05-08T12:42:23;22.10;99.90
53282;DHT22;39167;52.794;6.892;2023-05-08T12:45:10;22.10;99.90
53282;DHT22;39167;52.794;6.892;2023-05-08T12:48:19;22.00;99.90
53282;DHT22;39167;52.794;6.892;2023-05-08T12:50:48;22.10;99.90
53282;DHT22;39167;52.794;6.892;2023-05-08T12:53:15;22.20;99.90
53282;DHT22;39167;52.794;6.892;2023-05-08T12:55:54;22.20;99.90
53282;DHT22;39167;52.794;6.892;2023-05-08T12:58:28;22.20;99.90
53282;DHT22;39167;52.794;6.892;2023-05-08T13:01:07;22.20;99.90
53282;DHT22;39167;52.794;6.892;2023-05-08T13:03:35;22.20;99.90
53282;DHT22;39167;52.794;6.892;2023-05-08T13:06:01;22.20;99.90
53282;DHT22;39167;52.794;6.892;2023-05-08T13:08:36;22.20;99.90
53282;DHT22;39167;52.794;6.892;2023-05-08T13:11:04;22.10;99.90
53282;DHT22;39167;52.794;6.892;2023-05-08T13:13:32;22.10;99.90
53282;DHT22;39167;52.794;6.892;2023-05-08T13:16:02;22.10;99.90
53282;DHT22;39167;52.794;6.892;2023-05-08T13:18:28;22.10;99.90
53282;DHT22;39167;52.794;6.892;2023-05-08T13:20:54;22.10;99.90
53282;DHT22;39167;52.794;6.892;2023-05-08T13:23:26;22.00;99.90
53282;DHT22;39167;52.794;6.892;2023-05-08T13:25:52;22.00;99.90
53282;DHT22;39167;52.794;6.892;2023-05-08T13:28:18;22.00;99.90
53282;DHT22;39167;52.794;6.892;2023-05-08T13:30:43;22.00;99.90
53282;DHT22;39167;52.794;6.892;2023-05-08T13:33:09;21.90;99.90
53282;DHT22;39167;52.794;6.892;2023-05-08T13:35:35;22.00;99.90
53282;DHT22;39167;52.794;6.892;2023-05-08T13:38:04;21.90;99.90
53282;DHT22;39167;52.794;6.892;2023-05-08T13:40:33;21.90;99.90
53282;DHT22;39167;52.794;6.892;2023-05-08T13:42:59;22.10;99.90
53282;DHT22;39167;52.794;6.892;2023-05-08T13:45:25;22.10;99.90
53282;DHT22;39167;52.794;6.892;2023-05-08T13:47:50;22.20;99.90
53282;DHT22;39167;52.794;6.892;2023-05-08T13:50:17;22.20;99.90
53282;DHT22;39167;52.794;6.892;2023-05-08T13:52:48;22.30;99.90
53282;DHT22;39167;52.794;6.892;2023-05-08T13:55:23;22.20;99.90
53282;DHT22;39167;52.794;6.892;2023-05-08T13:57:49;22.20;99.90
53282;DHT22;39167;52.794;6.892;2023-05-08T14:00:18;22.10;99.90
53282;DHT22;39167;52.794;6.892;2023-05-08T14:02:44;22.10;99.90
53282;DHT22;39167;52.794;6.892;2023-05-08T14:05:10;22.00;99.90
53282;DHT22;39167;52.794;6.892;2023-05-08T14:07:35;21.90;99.90
53282;DHT22;39167;52.794;6.892;2023-05-08T14:10:08;21.90;99.90
53282;DHT22;39167;52.794;6.892;2023-05-08T14:12:34;21.90;99.90
53282;DHT22;39167;52.794;6.892;2023-05-08T14:15:01;21.80;99.90
53282;DHT22;39167;52.794;6.892;2023-05-08T14:17:30;21.80;99.90
53282;DHT22;39167;52.794;6.892;2023-05-08T14:19:56;21.70;99.90
53282;DHT22;39167;52.794;6.892;2023-05-08T14:22:24;21.60;99.90
53282;DHT22;39167;52.794;6.892;2023-05-08T14:24:53;21.50;99.90
53282;DHT22;39167;52.794;6.892;2023-05-08T14:27:30;21.50;99.90
53282;DHT22;39167;52.794;6.892;2023-05-08T14:30:04;21.40;99.90
53282;DHT22;39167;52.794;6.892;2023-05-08T14:32:33;21.30;99.90
53282;DHT22;39167;52.794;6.892;2023-05-08T14:35:04;21.30;99.90
53282;DHT22;39167;52.794;6.892;2023-05-08T14:37:30;21.20;99.90
53282;DHT22;39167;52.794;6.892;2023-05-08T14:39:59;21.10;99.90
53282;DHT22;39167;52.794;6.892;2023-05-08T14:42:27;20.90;99.90
53282;DHT22;39167;52.794;6.892;2023-05-08T14:44:53;20.80;99.90
53282;DHT22;39167;52.794;6.892;2023-05-08T14:47:20;20.60;99.90
53282;DHT22;39167;52.794;6.892;2023-05-08T14:50:19;20.60;99.90
53282;DHT22;39167;52.794;6.892;2023-05-08T14:52:58;20.50;99.90
53282;DHT22;39167;52.794;6.892;2023-05-08T14:55:59;20.30;99.90
53282;DHT22;39167;52.794;6.892;2023-05-08T14:58:30;20.30;99.90
53282;DHT22;39167;52.794;6.892;2023-05-08T15:01:02;20.20;99.90
53282;DHT22;39167;52.794;6.892;2023-05-08T15:03:28;20.10;99.90
53282;DHT22;39167;52.794;6.892;2023-05-08T15:05:56;20.00;99.90
53282;DHT22;39167;52.794;6.892;2023-05-08T15:08:22;20.00;99.90
53282;DHT22;39167;52.794;6.892;2023-05-08T15:10:48;19.90;99.90
53282;DHT22;39167;52.794;6.892;2023-05-08T15:13:15;19.90;99.90
53282;DHT22;39167;52.794;6.892;2023-05-08T15:15:44;19.80;99.90
53282;DHT22;39167;52.794;6.892;2023-05-08T15:18:12;19.90;99.90
53282;DHT22;39167;52.794;6.892;2023-05-08T15:20:38;19.80;99.90
53282;DHT22;39167;52.794;6.892;2023-05-08T15:23:04;19.70;99.90
53282;DHT22;39167;52.794;6.892;2023-05-08T15:25:55;19.70;99.90
53282;DHT22;39167;52.794;6.892;2023-05-08T15:28:23;19.70;99.90
53282;DHT22;39167;52.794;6.892;2023-05-08T15:30:49;19.60;99.90
53282;DHT22;39167;52.794;6.892;2023-05-08T15:38:45;19.60;99.90
53282;DHT22;39167;52.794;6.892;2023-05-08T15:41:33;19.60;99.90
53282;DHT22;39167;52.794;6.892;2023-05-08T15:44:32;19.60;99.90
53282;DHT22;39167;52.794;6.892;2023-05-08T15:47:03;19.50;99.90
53282;DHT22;39167;52.794;6.892;2023-05-08T15:49:40;19.50;99.90
53282;DHT22;39167;52.794;6.892;2023-05-08T15:52:08;19.60;99.90
53282;DHT22;39167;52.794;6.892;2023-05-08T15:54:34;19.60;99.90
53282;DHT22;39167;52.794;6.892;2023-05-08T15:57:02;19.60;99.90
53282;DHT22;39167;52.794;6.892;2023-05-08T15:59:33;19.60;99.90
53282;DHT22;39167;52.794;6.892;2023-05-08T16:02:11;19.60;99.90
53282;DHT22;39167;52.794;6.892;2023-05-08T16:04:53;20.00;99.90
53282;DHT22;39167;52.794;6.892;2023-05-08T16:07:21;19.60;99.90
53282;DHT22;39167;52.794;6.892;2023-05-08T16:09:47;19.50;99.90
53282;DHT22;39167;52.794;6.892;2023-05-08T16:12:13;19.60;99.90
53282;DHT22;39167;52.794;6.892;2023-05-08T16:14:38;19.60;99.90
53282;DHT22;39167;52.794;6.892;2023-05-08T16:17:04;19.60;99.90
53282;DHT22;39167;52.794;6.892;2023-05-08T16:19:39;19.60;99.90
53282;DHT22;39167;52.794;6.892;2023-05-08T16:22:05;19.60;99.90
53282;DHT22;39167;52.794;6.892;2023-05-08T16:24:31;19.70;99.90
53282;DHT22;39167;52.794;6.892;2023-05-08T16:26:58;19.70;99.90
53282;DHT22;39167;52.794;6.892;2023-05-08T16:29:24;19.80;99.90
53282;DHT22;39167;52.794;6.892;2023-05-08T16:31:52;19.80;99.90
53282;DHT22;39167;52.794;6.892;2023-05-08T16:34:18;19.80;99.90
53282;DHT22;39167;52.794;6.892;2023-05-08T16:36:44;19.80;99.90
53282;DHT22;39167;52.794;6.892;2023-05-08T16:39:17;19.90;99.90
53282;DHT22;39167;52.794;6.892;2023-05-08T16:41:49;20.00;99.90
53282;DHT22;39167;52.794;6.892;2023-05-08T16:44:18;20.00;99.90
53282;DHT22;39167;52.794;6.892;2023-05-08T16:46:52;20.00;99.90
53282;DHT22;39167;52.794;6.892;2023-05-08T16:49:18;20.10;99.90
53282;DHT22;39167;52.794;6.892;2023-05-08T16:51:46;20.00;99.90
53282;DHT22;39167;52.794;6.892;2023-05-08T16:54:12;19.90;99.90
53282;DHT22;39167;52.794;6.892;2023-05-08T16:56:41;20.00;99.90
53282;DHT22;39167;52.794;6.892;2023-05-08T16:59:09;20.00;99.90
53282;DHT22;39167;52.794;6.892;2023-05-08T17:01:35;20.00;99.90
53282;DHT22;39167;52.794;6.892;2023-05-08T17:04:00;20.00;99.90
53282;DHT22;39167;52.794;6.892;2023-05-08T17:06:26;19.90;99.90
53282;DHT22;39167;52.794;6.892;2023-05-08T17:09:05;20.00;99.90
53282;DHT22;39167;52.794;6.892;2023-05-08T17:11:31;19.90;99.90
53282;DHT22;39167;52.794;6.892;2023-05-08T17:13:57;20.00;99.90
53282;DHT22;39167;52.794;6.892;2023-05-08T18:02:11;19.70;99.90
53282;DHT22;39167;52.794;6.892;2023-05-08T18:04:36;19.70;99.90
53282;DHT22;39167;52.794;6.892;2023-05-08T18:07:02;19.60;99.90
53282;DHT22;39167;52.794;6.892;2023-05-08T18:09:28;19.50;99.90
53282;DHT22;39167;52.794;6.892;2023-05-08T18:11:54;19.50;99.90
53282;DHT22;39167;52.794;6.892;2023-05-08T18:14:31;19.40;99.90
53282;DHT22;39167;52.794;6.892;2023-05-08T18:16:57;19.40;99.90
53282;DHT22;39167;52.794;6.892;2023-05-08T18:47:53;19.20;99.90
53282;DHT22;39167;52.794;6.892;2023-05-08T18:50:24;19.20;99.90
53282;DHT22;39167;52.794;6.892;2023-05-08T18:52:50;19.10;99.90
53282;DHT22;39167;52.794;6.892;2023-05-08T18:55:16;19.00;99.90
53282;DHT22;39167;52.794;6.892;2023-05-08T18:57:42;18.90;99.90
53282;DHT22;39167;52.794;6.892;2023-05-08T21:06:44;17.70;99.90
53282;DHT22;39167;52.794;6.892;2023-05-08T21:09:10;17.70;99.90
53282;DHT22;39167;52.794;6.892;2023-05-08T21:11:35;17.70;99.90
53282;DHT22;39167;52.794;6.892;2023-05-08T21:14:01;17.70;99.90
53282;DHT22;39167;52.794;6.892;2023-05-08T21:16:27;17.70;99.90
53282;DHT22;39167;52.794;6.892;2023-05-08T21:18:52;17.70;99.90
53282;DHT22;39167;52.794;6.892;2023-05-08T21:21:18;17.70;99.90
53282;DHT22;39167;52.794;6.892;2023-05-08T21:23:44;17.70;99.90
53282;DHT22;39167;52.794;6.892;2023-05-08T21:26:10;17.70;99.90
53282;DHT22;39167;52.794;6.892;2023-05-08T21:28:36;17.60;99.90
53282;DHT22;39167;52.794;6.892;2023-05-08T21:31:02;17.60;99.90
53282;DHT22;39167;52.794;6.892;2023-05-08T21:33:28;17.60;99.90
53282;DHT22;39167;52.794;6.892;2023-05-08T21:35:54;17.60;99.90
53282;DHT22;39167;52.794;6.892;2023-05-08T21:38:20;17.60;99.90
53282;DHT22;39167;52.794;6.892;2023-05-08T21:40:45;17.60;99.90
53282;DHT22;39167;52.794;6.892;2023-05-08T21:43:11;17.60;99.90
53282;DHT22;39167;52.794;6.892;2023-05-08T21:45:37;17.60;99.90
53282;DHT22;39167;52.794;6.892;2023-05-08T21:48:03;17.50;99.90
53282;DHT22;39167;52.794;6.892;2023-05-08T21:50:28;17.50;99.90
53282;DHT22;39167;52.794;6.892;2023-05-08T21:52:54;17.50;99.90
53282;DHT22;39167;52.794;6.892;2023-05-08T21:55:23;17.50;99.90
53282;DHT22;39167;52.794;6.892;2023-05-08T21:57:49;17.50;99.90
53282;DHT22;39167;52.794;6.892;2023-05-08T22:00:15;17.50;99.90
53282;DHT22;39167;52.794;6.892;2023-05-08T22:02:41;17.50;99.90
53282;DHT22;39167;52.794;6.892;2023-05-08T22:05:07;17.50;99.90
53282;DHT22;39167;52.794;6.892;2023-05-08T22:07:33;17.40;99.90
53282;DHT22;39167;52.794;6.892;2023-05-08T22:09:59;17.40;99.90
53282;DHT22;39167;52.794;6.892;2023-05-08T22:12:25;17.40;99.90
53282;DHT22;39167;52.794;6.892;2023-05-08T22:14:51;17.40;99.90
53282;DHT22;39167;52.794;6.892;2023-05-08T22:17:16;17.40;99.90
53282;DHT22;39167;52.794;6.892;2023-05-08T22:19:42;17.40;99.90
53282;DHT22;39167;52.794;6.892;2023-05-08T22:22:08;17.40;99.90
53282;DHT22;39167;52.794;6.892;2023-05-08T22:24:33;17.40;99.90
53282;DHT22;39167;52.794;6.892;2023-05-08T22:26:59;17.40;99.90
53282;DHT22;39167;52.794;6.892;2023-05-08T22:29:25;17.30;99.90
53282;DHT22;39167;52.794;6.892;2023-05-08T22:31:51;17.30;99.90
53282;DHT22;39167;52.794;6.892;2023-05-08T22:34:16;17.30;99.90
53282;DHT22;39167;52.794;6.892;2023-05-08T22:36:42;17.30;99.90
53282;DHT22;39167;52.794;6.892;2023-05-08T22:39:08;17.30;99.90
53282;DHT22;39167;52.794;6.892;2023-05-08T22:41:37;17.30;99.90
53282;DHT22;39167;52.794;6.892;2023-05-08T22:44:04;17.30;99.90
53282;DHT22;39167;52.794;6.892;2023-05-08T22:46:31;17.30;99.90
53282;DHT22;39167;52.794;6.892;2023-05-08T22:48:58;17.30;99.90
53282;DHT22;39167;52.794;6.892;2023-05-08T22:51:24;17.30;99.90
53282;DHT22;39167;52.794;6.892;2023-05-08T22:53:50;17.30;99.90
53282;DHT22;39167;52.794;6.892;2023-05-08T22:56:15;17.20;99.90
53282;DHT22;39167;52.794;6.892;2023-05-08T22:58:41;17.20;99.90
53282;DHT22;39167;52.794;6.892;2023-05-08T23:01:07;17.20;99.90
53282;DHT22;39167;52.794;6.892;2023-05-08T23:03:32;17.20;99.90
53282;DHT22;39167;52.794;6.892;2023-05-08T23:05:58;17.20;99.90
53282;DHT22;39167;52.794;6.892;2023-05-08T23:08:24;17.10;99.90
53282;DHT22;39167;52.794;6.892;2023-05-08T23:10:50;17.10;99.90
53282;DHT22;39167;52.794;6.892;2023-05-08T23:13:15;17.10;99.90
53282;DHT22;39167;52.794;6.892;2023-05-08T23:15:41;17.10;99.90
53282;DHT22;39167;52.794;6.892;2023-05-08T23:18:07;17.10;99.90
53282;DHT22;39167;52.794;6.892;2023-05-08T23:20:33;17.10;99.90
53282;DHT22;39167;52.794;6.892;2023-05-08T23:22:58;17.10;99.90
53282;DHT22;39167;52.794;6.892;2023-05-08T23:25:27;17.10;99.90
53282;DHT22;39167;52.794;6.892;2023-05-08T23:27:53;17.00;99.90
53282;DHT22;39167;52.794;6.892;2023-05-08T23:30:18;17.00;99.90
53282;DHT22;39167;52.794;6.892;2023-05-08T23:32:44;17.00;99.90